Weather reports worldwide

Advertisment
Nieuw Beerta aws, Netherlands (6286): temperature & dewpoint: 12.01.2020 13:00:00 - 18.01.2020 13:00:00 (CET)Nieuw Beerta aws, Netherlands (6286): temperature 5cm & temperature -5cm: 12.01.2020 13:00:00 - 18.01.2020 13:00:00 (CET)Nieuw Beerta aws, Netherlands (6286): temperature -20cm & temperature -100cm: 12.01.2020 13:00:00 - 18.01.2020 13:00:00 (CET)Nieuw Beerta aws, Netherlands (6286): wind speed & gusts: 12.01.2020 13:00:00 - 18.01.2020 13:00:00 (CET)Nieuw Beerta aws, Netherlands (6286): wind direction: 12.01.2020 13:00:00 - 18.01.2020 13:00:00 (CET)Nieuw Beerta aws, Netherlands (6286): precipitation: 12.01.2020 13:00:00 - 18.01.2020 13:00:00 (CET)
Date & Time tt [°C] td [°C] tt 5cm [°C] tt -5cm [°C] tt -20cm [°C] tt -100cm [°C] ff [km/h] ff [kn] fx [km/h] fx [kn] dd rr [mm]
18.01.2020 13:00:00 5,2 3,9 5,1 5,3 5,7 7,9 18 10 36 19 WSW 1,6
18.01.2020 12:00:00 5,1 3,7 5,1 5,1 5,7 7,9 25 14 47 25 SW 0,1
18.01.2020 11:00:00 4,5 3,3 4,3 4,8 5,8 7,9 25 14 40 21 SW 0,0
18.01.2020 10:00:00 4,1 2,8 3,6 4,7 5,8 7,9 29 16 43 23 SW 0,0
18.01.2020 09:00:00 3,1 1,9 2,5 4,8 5,9 7,9 29 16 36 19 SSW 0,0
18.01.2020 08:00:00 2,9 1,8 2,5 4,9 6,0 7,9 29 16 32 18 SSW 0,0
18.01.2020 07:00:00 2,9 1,8 2,4 5,0 6,1 7,9 25 14 36 19 SSW 0,0
18.01.2020 06:00:00 3,1 1,8 2,4 5,2 6,2 7,9 25 14 32 18 SSW 0,0
18.01.2020 05:00:00 3,3 1,9 2,7 5,4 6,2 7,9 22 12 32 18 SSW 0,0
18.01.2020 04:00:00 3,9 2,2 3,2 5,6 6,3 7,9 25 14 36 19 SSW 0,0
18.01.2020 03:00:00 4,4 2,8 3,8 5,8 6,4 7,9 25 14 32 18 SW 0,0
18.01.2020 02:00:00 4,4 2,4 3,9 6,0 6,4 7,9 25 14 47 25 SW 0,0
18.01.2020 01:00:00 5,5 2,9 5,1 6,1 6,4 7,9 32 18 50 27 WSW 0,0
18.01.2020 00:00:00 6,0 2,9 5,5 6,3 6,5 7,9 36 19 54 29 WSW 0,0
17.01.2020 23:00:00 6,3 3,5 5,9 6,4 6,5 7,9 43 23 58 31 WSW 0,0
17.01.2020 22:00:00 7,3 3,4 6,6 6,5 6,5 7,9 36 19 54 29 SW 0,0
17.01.2020 21:00:00 7,3 5,4 6,5 6,6 6,5 7,9 25 14 36 19 SW 0,0
17.01.2020 20:00:00 7,5 6,7 6,9 6,8 6,4 7,9 18 10 29 16 SSW 0,0
17.01.2020 19:00:00 8,4 7,7 8,1 6,8 6,4 7,9 22 12 29 16 SSW 0,2
17.01.2020 18:00:00 8,3 7,7 8,1 6,8 6,3 7,9 18 10 25 14 SSW 0,0
17.01.2020 17:00:00 8,2 7,6 8,1 6,7 6,3 7,9 18 10 29 16 SSW 0,0
17.01.2020 16:00:00 8,6 7,5 8,3 6,7 6,2 7,9 18 10 32 18 SSW 0,2
17.01.2020 15:00:00 9,2 6,8 8,8 6,6 6,2 7,9 22 12 29 16 SSW 0,0
17.01.2020 14:00:00 9,0 6,6 8,8 6,4 6,1 7,9 22 12 36 19 SSW 0,0
17.01.2020 13:00:00 9,0 6,2 8,9 6,2 6,0 7,9 18 10 32 18 S 0,0
17.01.2020 12:00:00 8,7 5,5 8,4 5,9 6,0 7,9 22 12 32 18 S 0,0
17.01.2020 11:00:00 8,5 5,2 8,0 5,7 6,0 7,9 22 12 32 18 S 0,0
17.01.2020 10:00:00 8,2 4,8 7,5 5,5 6,0 7,9 22 12 32 18 S 0,0
17.01.2020 09:00:00 7,3 4,3 6,3 5,5 6,1 7,9 18 10 29 16 S 0,0
17.01.2020 08:00:00 7,1 4,3 6,2 5,6 6,1 7,9 22 12 32 18 S 0,0
17.01.2020 07:00:00 7,7 4,5 6,6 5,6 6,1 7,9 22 12 29 16 SSE 0,0
17.01.2020 06:00:00 7,7 4,6 6,8 5,6 6,1 7,8 22 12 29 16 S 0,0
17.01.2020 05:00:00 7,6 4,7 6,7 5,6 6,1 7,8 18 10 25 14 S 0,0
17.01.2020 04:00:00 7,4 4,6 6,3 5,6 6,2 7,8 14 8 22 12 SSE 0,0
17.01.2020 03:00:00 7,5 4,7 6,3 5,7 6,2 7,8 14 8 25 14 S 0,0
17.01.2020 02:00:00 7,6 4,8 6,5 5,7 6,2 7,8 14 8 29 16 S 0,0
17.01.2020 01:00:00 8,0 4,9 6,7 5,7 6,2 7,8 22 12 32 18 S 0,0
17.01.2020 00:00:00 7,7 4,6 6,8 5,8 6,3 7,8 22 12 32 18 SSE 0,0
16.01.2020 23:00:00 7,5 4,7 6,5 5,8 6,3 7,8 18 10 32 18 SSE 0,0
16.01.2020 22:00:00 7,6 4,7 6,7 5,8 6,3 7,8 22 12 36 19 SSE 0,0
16.01.2020 21:00:00 7,7 4,9 6,8 5,9 6,4 7,8 25 14 36 19 SSE 0,0
16.01.2020 20:00:00 7,7 5,1 6,7 5,9 6,4 7,8 25 14 32 18 SSE 0,0
16.01.2020 19:00:00 6,5 4,8 5,6 6,1 6,4 7,8 18 10 25 14 SSE 0,0
16.01.2020 18:00:00 6,9 4,8 6,1 6,2 6,4 7,8 18 10 25 14 SE 0,0
16.01.2020 17:00:00 7,1 5,0 6,3 6,4 6,4 7,8 18 10 25 14 SSE 0,0
16.01.2020 16:00:00 7,8 5,5 7,3 6,5 6,3 7,8 14 8 22 12 SE 0,0
16.01.2020 15:00:00 8,9 5,7 8,4 6,4 6,3 7,8 18 10 25 14 SSE 0,0
16.01.2020 14:00:00 8,4 5,8 8,1 6,2 6,3 7,8 18 10 25 14 S 0,0
16.01.2020 13:00:00 7,3 5,5 7,2 5,8 6,3 7,8 22 12 25 14 S 0,0
16.01.2020 12:00:00 6,7 5,3 6,5 5,6 6,3 7,8 18 10 25 14 S 0,0
16.01.2020 11:00:00 5,0 4,3 4,7 5,4 6,4 7,8 14 8 25 14 S 0,0
16.01.2020 10:00:00 4,5 4,0 4,3 5,4 6,4 7,8 18 10 25 14 S 0,0
16.01.2020 09:00:00 3,9 3,4 3,2 5,5 6,5 7,8 14 8 25 14 SSW 0,0
16.01.2020 08:00:00 3,9 3,4 3,5 5,6 6,6 7,8 22 12 29 16 SSW 0,0
16.01.2020 07:00:00 4,1 3,5 3,5 5,7 6,7 7,8 18 10 29 16 SSW 0,0
16.01.2020 06:00:00 4,1 3,5 3,5 5,8 6,8 7,8 22 12 25 14 SSW 0,0
16.01.2020 05:00:00 4,2 3,7 3,6 6,0 6,9 7,8 14 8 29 16 SSW 0,0
16.01.2020 04:00:00 4,6 4,0 4,0 6,1 6,9 7,8 25 14 32 18 SSW 0,0
16.01.2020 03:00:00 5,1 4,3 4,5 6,3 7,0 7,8 22 12 32 18 SSW 0,0
16.01.2020 02:00:00 5,6 4,6 5,0 6,4 7,1 7,8 22 12 36 19 SW 0,0
16.01.2020 01:00:00 6,0 4,7 5,2 6,5 7,2 7,8 29 16 40 21 SW 0,0
16.01.2020 00:00:00 5,6 4,3 5,0 6,7 7,3 7,8 22 12 36 19 SW 0,0
15.01.2020 23:00:00 5,9 4,4 5,1 6,9 7,3 7,8 22 12 40 21 SW 0,0
15.01.2020 22:00:00 6,0 4,7 5,3 7,1 7,4 7,8 22 12 32 18 SW 0,0
15.01.2020 21:00:00 6,1 5,1 5,5 7,4 7,5 7,8 22 12 32 18 SW 0,0
15.01.2020 20:00:00 6,3 5,3 5,8 7,7 7,5 7,8 18 10 29 16 SW 0,0
15.01.2020 19:00:00 7,0 5,8 6,7 7,8 7,5 7,8 18 10 29 16 WSW 0,3
15.01.2020 18:00:00 7,2 6,1 7,0 8,0 7,5 7,8 22 12 50 27 W 1,2
15.01.2020 17:00:00 10,4 7,1 9,6 8,1 7,5 7,8 40 21 58 31 SW 0,3
15.01.2020 16:00:00 10,8 6,8 10,0 8,1 7,5 7,8 40 21 61 33 SSW 0,0
15.01.2020 15:00:00 10,7 6,6 10,0 8,1 7,4 7,8 36 19 54 29 SSW 0,2
15.01.2020 14:00:00 10,8 6,6 10,2 8,1 7,4 7,8 40 21 61 33 SSW 0,0
15.01.2020 13:00:00 11,5 6,1 11,0 8,0 7,4 7,8 43 23 58 31 SSW 0,0
15.01.2020 12:00:00 11,1 6,1 10,7 7,9 7,4 7,8 40 21 54 29 SSW 0,0
15.01.2020 11:00:00 11,1 6,2 10,6 7,9 7,4 7,8 40 21 58 31 SSW 0,0
15.01.2020 10:00:00 10,9 6,4 10,4 7,8 7,4 7,8 40 21 61 33 SSW 0,0
15.01.2020 09:00:00 10,5 6,3 9,6 7,8 7,4 7,8 40 21 54 29 SSW 0,0
15.01.2020 08:00:00 10,5 6,5 9,8 7,9 7,3 7,8 36 19 61 33 SSW 0,0
15.01.2020 07:00:00 10,8 6,9 10,1 8,0 7,3 7,8 40 21 58 31 SSW 0,0
15.01.2020 06:00:00 11,2 7,5 10,6 8,1 7,3 7,8 43 23 58 31 SSW 0,0
15.01.2020 05:00:00 11,2 7,9 10,5 8,1 7,2 7,8 40 21 58 31 SSW 0,0
15.01.2020 04:00:00 11,3 8,7 10,6 8,1 7,2 7,8 40 21 58 31 SSW 0,1
15.01.2020 03:00:00 11,3 8,6 10,6 8,1 7,2 7,8 43 23 65 35 SSW 0,1
15.01.2020 02:00:00 10,8 8,9 10,3 8,0 7,1 7,8 47 25 68 37 SSW 0,1
15.01.2020 01:00:00 10,8 8,9 10,2 8,0 7,0 7,8 50 27 65 35 SSW 0,1
15.01.2020 00:00:00 11,7 8,5 11,2 7,9 7,0 7,8 50 27 65 35 SSW 0,0
14.01.2020 23:00:00 11,9 8,6 11,4 7,8 6,9 7,8 50 27 65 35 SSW 0,0
14.01.2020 22:00:00 11,6 8,5 11,0 7,7 6,9 7,8 47 25 68 37 SSW 0,0
14.01.2020 21:00:00 10,8 7,9 10,3 7,6 6,9 7,8 47 25 68 37 SSW 0,0
14.01.2020 20:00:00 10,7 7,5 10,2 7,5 6,8 7,8 50 27 65 35 SSW 0,0
14.01.2020 19:00:00 10,4 7,3 9,9 7,5 6,8 7,8 47 25 61 33 SSW 0,0
14.01.2020 18:00:00 9,8 7,5 9,3 7,5 6,7 7,8 40 21 54 29 S 0,0
14.01.2020 17:00:00 9,5 7,9 9,1 7,5 6,7 7,8 32 18 47 25 S 0,2
14.01.2020 16:00:00 9,6 8,1 9,2 7,5 6,6 7,8 32 18 47 25 S 0,6
14.01.2020 15:00:00 10,0 8,0 9,7 7,4 6,6 7,8 32 18 47 25 SSW 0,0
14.01.2020 14:00:00 10,0 8,1 9,8 7,3 6,5 7,8 32 18 47 25 SSW 0,0
14.01.2020 13:00:00 9,7 7,6 9,6 7,2 6,4 7,8 25 14 40 21 SSW 0,0
14.01.2020 12:00:00 9,2 7,6 8,9 7,1 6,4 7,8 29 16 36 19 SSW 0,0
14.01.2020 11:00:00 9,3 7,7 8,9 7,0 6,3 7,8 25 14 32 18 SW 0,0
14.01.2020 10:00:00 9,2 8,0 8,8 7,0 6,3 7,8 29 16 47 25 SW 1,4
14.01.2020 09:00:00 9,2 8,3 8,9 6,9 6,2 7,8 36 19 50 27 SSW 0,6
14.01.2020 08:00:00 9,3 8,1 9,0 6,8 6,1 7,8 40 21 61 33 SSW 0,3
14.01.2020 07:00:00 9,4 8,1 8,9 6,6 6,1 7,8 40 21 58 31 SSW 1,2
14.01.2020 06:00:00 9,2 7,9 8,8 6,5 6,0 7,8 40 21 58 31 S 0,8
14.01.2020 05:00:00 9,1 7,7 8,6 6,4 6,0 7,8 40 21 54 29 S 1,0
14.01.2020 04:00:00 9,3 7,2 8,7 6,3 5,9 7,8 40 21 58 31 S 0,5
14.01.2020 03:00:00 9,7 6,6 9,0 6,1 5,9 7,8 36 19 58 31 S 0,0
14.01.2020 02:00:00 9,1 6,3 8,7 6,0 5,8 7,8 36 19 54 29 S 0,0
14.01.2020 01:00:00 8,5 5,9 8,1 5,9 5,8 7,8 36 19 54 29 S 0,0
14.01.2020 00:00:00 8,3 5,7 7,9 5,8 5,8 7,8 32 18 50 27 S 0,0
13.01.2020 23:00:00 7,6 5,1 7,3 5,7 5,8 7,8 36 19 54 29 S 0,0
13.01.2020 22:00:00 7,4 4,7 6,9 5,6 5,8 7,8 36 19 50 27 S 0,0
13.01.2020 21:00:00 7,2 4,4 6,8 5,5 5,8 7,8 36 19 47 25 S 0,0
13.01.2020 20:00:00 6,5 4,5 5,9 5,5 5,9 7,8 29 16 43 23 SSE 0,0
13.01.2020 19:00:00 5,8 3,9 5,1 5,6 5,9 7,8 22 12 32 18 SSE 0,0
13.01.2020 18:00:00 5,8 3,8 5,0 5,8 5,9 7,8 18 10 29 16 SSE 0,0
13.01.2020 17:00:00 6,2 4,2 5,6 6,0 5,8 7,7 18 10 32 18 S 0,0
13.01.2020 16:00:00 6,6 4,3 6,2 6,1 5,8 7,7 25 14 36 19 S 0,0
13.01.2020 15:00:00 7,4 5,2 7,3 6,0 5,7 7,7 22 12 36 19 S 0,0
13.01.2020 14:00:00 7,4 5,0 7,3 5,9 5,7 7,7 25 14 36 19 SSW 0,0
13.01.2020 13:00:00 7,2 5,2 7,2 5,6 5,6 7,7 25 14 32 18 SSW 0,0
13.01.2020 12:00:00 6,6 5,6 6,6 5,4 5,6 7,7 18 10 29 16 S 0,0
13.01.2020 11:00:00 6,2 5,1 5,9 5,4 5,6 7,7 18 10 25 14 S 0,0
13.01.2020 10:00:00 6,1 5,2 5,9 5,3 5,6 7,7 18 10 29 16 SSW 0,0
13.01.2020 09:00:00 5,8 5,2 5,5 5,2 5,6 7,7 14 8 25 14 SW 0,0
13.01.2020 08:00:00 5,7 5,2 5,1 5,1 5,7 7,7 18 10 25 14 SSW 0,0
13.01.2020 07:00:00 5,2 4,9 4,8 5,0 5,7 7,7 18 10 22 12 SSW 0,0
13.01.2020 06:00:00 3,7 3,6 3,2 5,1 5,8 7,7 11 6 18 10 SSW 0,0
13.01.2020 05:00:00 4,4 4,0 4,0 5,1 5,8 7,7 14 8 22 12 SSW 0,0
13.01.2020 04:00:00 3,9 3,4 3,5 5,2 5,9 7,7 14 8 22 12 SSW 0,0
13.01.2020 03:00:00 3,6 3,2 3,0 5,4 6,0 7,7 18 10 22 12 SSW 0,0
13.01.2020 02:00:00 3,7 3,2 3,1 5,6 6,0 7,7 14 8 25 14 SSW 0,0
13.01.2020 01:00:00 4,3 3,7 3,7 5,8 6,0 7,7 14 8 22 12 SSW 0,0
13.01.2020 00:00:00 5,7 4,5 5,2 6,0 6,0 7,7 14 8 25 14 SW 0,0
12.01.2020 23:00:00 6,7 4,8 6,0 6,1 6,0 7,7 22 12 36 19 W 0,0
12.01.2020 22:00:00 7,2 5,1 6,8 6,2 6,0 7,7 32 18 43 23 W 0,0
12.01.2020 21:00:00 6,9 4,7 6,6 6,2 6,0 7,7 32 18 65 35 W 0,0
12.01.2020 20:00:00 7,7 5,3 7,4 6,3 5,9 7,7 36 19 61 33 W 0,0
12.01.2020 19:00:00 8,6 6,2 8,1 6,3 5,9 7,7 40 21 58 31 WSW 0,0
12.01.2020 18:00:00 8,8 7,4 8,4 6,2 5,8 7,7 29 16 43 23 SW 0,1
12.01.2020 17:00:00 8,4 7,3 8,0 6,0 5,8 7,7 29 16 43 23 SW 0,0
12.01.2020 16:00:00 7,6 6,9 7,4 5,9 5,7 7,7 32 18 47 25 SSW 0,2
12.01.2020 15:00:00 7,5 6,6 7,2 5,7 5,7 7,7 32 18 50 27 SW 0,1
12.01.2020 14:00:00 6,5 5,9 6,2 5,6 5,7 7,7 32 18 50 27 SSW 0,2
12.01.2020 13:00:00 5,8 5,1 5,6 5,5 5,7 7,7 36 19 50 27 SSW 0,5

tt = temperature
td = dewpoint
tt 5cm = temperature 5cm
tt -5cm = temperature -5cm
tt -20cm = temperature -20cm
tt -100cm = temperature -100cm
ff = wind speed
fx = gusts
dd = wind direction
rr = precipitation

Next stations